Time;durP1;ratioP1;P1;durP2;ratioP2;P2;SDS_P1;SDS_P2;PMS_P1;PMS_P2;Temp;Humidity;BMP_temperature;BMP_pressure;BME280_temperature;BME280_humidity;BME280_pressure;Samples;Min_cycle;Max_cycle;Signal;HPM_P1;HPM_P2
2020/07/29 00:01:49;;;;;;;10.8;8.2;;;;;;;;;;;;;
2020/07/29 00:04:15;;;;;;;8.1;7.4;;;;;;;;;;;;;
2020/07/29 00:06:40;;;;;;;9;7.6;;;;;;;;;;;;;
2020/07/29 00:09:05;;;;;;;8.3;7.3;;;;;;;;;;;;;
2020/07/29 00:11:30;;;;;;;8.3;7.4;;;;;;;;;;;;;
2020/07/29 00:13:55;;;;;;;8.1;7.3;;;;;;;;;;;;;
2020/07/29 00:16:20;;;;;;;10.2;7.8;;;;;;;;;;;;;
2020/07/29 00:18:45;;;;;;;8;7.2;;;;;;;;;;;;;
2020/07/29 00:21:10;;;;;;;8.4;7.3;;;;;;;;;;;;;
2020/07/29 00:23:35;;;;;;;8;7.2;;;;;;;;;;;;;
2020/07/29 00:26:01;;;;;;;8.7;6.9;;;;;;;;;;;;;
2020/07/29 00:28:26;;;;;;;8.9;7.2;;;;;;;;;;;;;
2020/07/29 00:30:53;;;;;;;11.7;7.3;;;;;;;;;;;;;
2020/07/29 00:33:19;;;;;;;10.3;7.6;;;;;;;;;;;;;
2020/07/29 00:35:44;;;;;;;10.1;7.9;;;;;;;;;;;;;
2020/07/29 00:38:09;;;;;;;8.8;7.4;;;;;;;;;;;;;
2020/07/29 00:40:36;;;;;;;9;8.1;;;;;;;;;;;;;
2020/07/29 00:43:01;;;;;;;11.2;7.7;;;;;;;;;;;;;
2020/07/29 00:45:32;;;;;;;9.1;7.9;;;;;;;;;;;;;
2020/07/29 00:47:58;;;;;;;8.5;7.1;;;;;;;;;;;;;
2020/07/29 00:50:23;;;;;;;9.4;6.9;;;;;;;;;;;;;
2020/07/29 00:52:48;;;;;;;8.1;6.9;;;;;;;;;;;;;
2020/07/29 00:55:13;;;;;;;9.5;7.7;;;;;;;;;;;;;
2020/07/29 00:57:39;;;;;;;7.1;6.3;;;;;;;;;;;;;
2020/07/29 01:00:05;;;;;;;8.1;6.8;;;;;;;;;;;;;
2020/07/29 01:02:30;;;;;;;9;7.8;;;;;;;;;;;;;
2020/07/29 01:04:55;;;;;;;10.7;7.9;;;;;;;;;;;;;
2020/07/29 01:07:20;;;;;;;10.3;8.8;;;;;;;;;;;;;
2020/07/29 01:09:45;;;;;;;10.9;8.3;;;;;;;;;;;;;
2020/07/29 01:12:10;;;;;;;10.3;8.3;;;;;;;;;;;;;
2020/07/29 01:14:35;;;;;;;8.6;7.6;;;;;;;;;;;;;
2020/07/29 01:17:00;;;;;;;8.7;6.9;;;;;;;;;;;;;
2020/07/29 01:19:26;;;;;;;7.4;6.6;;;;;;;;;;;;;
2020/07/29 01:21:51;;;;;;;8.6;6.7;;;;;;;;;;;;;
2020/07/29 01:24:16;;;;;;;7.2;6.1;;;;;;;;;;;;;
2020/07/29 01:26:41;;;;;;;7.8;6.3;;;;;;;;;;;;;
2020/07/29 01:29:06;;;;;;;6.5;5.7;;;;;;;;;;;;;
2020/07/29 01:31:32;;;;;;;6.7;6.1;;;;;;;;;;;;;
2020/07/29 01:33:57;;;;;;;6.5;5.8;;;;;;;;;;;;;
2020/07/29 01:36:25;;;;;;;5.9;5.3;;;;;;;;;;;;;
2020/07/29 01:38:50;;;;;;;7.7;5.3;;;;;;;;;;;;;
2020/07/29 01:41:16;;;;;;;5.7;5.2;;;;;;;;;;;;;
2020/07/29 01:43:41;;;;;;;5.8;5.2;;;;;;;;;;;;;
2020/07/29 01:46:07;;;;;;;6.7;5.4;;;;;;;;;;;;;
2020/07/29 01:48:32;;;;;;;6.7;5.5;;;;;;;;;;;;;
2020/07/29 01:50:57;;;;;;;9.4;5.5;;;;;;;;;;;;;
2020/07/29 01:53:22;;;;;;;7.5;5.7;;;;;;;;;;;;;
2020/07/29 01:55:48;;;;;;;7.5;5.4;;;;;;;;;;;;;
2020/07/29 01:58:13;;;;;;;7.6;5.6;;;;;;;;;;;;;
2020/07/29 02:00:42;;;;;;;6.2;5.3;;;;;;;;;;;;;
2020/07/29 02:03:07;;;;;;;7.5;5.1;;;;;;;;;;;;;
2020/07/29 02:05:32;;;;;;;6.6;5.2;;;;;;;;;;;;;
2020/07/29 02:07:57;;;;;;;6.1;4.6;;;;;;;;;;;;;
2020/07/29 02:10:23;;;;;;;7.8;4.6;;;;;;;;;;;;;
2020/07/29 02:12:48;;;;;;;7.6;4.4;;;;;;;;;;;;;
2020/07/29 02:15:14;;;;;;;7.4;4.3;;;;;;;;;;;;;
2020/07/29 02:17:39;;;;;;;5.4;4.3;;;;;;;;;;;;;
2020/07/29 02:20:14;;;;;;;7.1;4.2;;;;;;;;;;;;;
2020/07/29 02:22:39;;;;;;;8.3;4;;;;;;;;;;;;;
2020/07/29 02:25:05;;;;;;;5.5;3.5;;;;;;;;;;;;;
2020/07/29 02:27:30;;;;;;;4.6;3.1;;;;;;;;;;;;;
2020/07/29 02:29:55;;;;;;;9.5;3.2;;;;;;;;;;;;;
2020/07/29 02:32:21;;;;;;;3.9;3.2;;;;;;;;;;;;;
2020/07/29 02:34:46;;;;;;;7.2;3.5;;;;;;;;;;;;;
2020/07/29 02:37:13;;;;;;;6.7;3.6;;;;;;;;;;;;;
2020/07/29 02:39:38;;;;;;;4.6;3.6;;;;;;;;;;;;;
2020/07/29 02:42:04;;;;;;;6.2;3.7;;;;;;;;;;;;;
2020/07/29 02:44:29;;;;;;;4.6;3.4;;;;;;;;;;;;;
2020/07/29 02:46:55;;;;;;;5.6;3.3;;;;;;;;;;;;;
2020/07/29 02:49:20;;;;;;;7.3;3.3;;;;;;;;;;;;;
2020/07/29 02:51:46;;;;;;;6.6;3.6;;;;;;;;;;;;;
2020/07/29 02:54:11;;;;;;;7.4;3.3;;;;;;;;;;;;;
2020/07/29 02:56:37;;;;;;;6.1;3.4;;;;;;;;;;;;;
2020/07/29 02:59:02;;;;;;;5.4;3.2;;;;;;;;;;;;;
2020/07/29 03:01:29;;;;;;;5.5;3.2;;;;;;;;;;;;;
2020/07/29 03:03:54;;;;;;;4.9;3.1;;;;;;;;;;;;;
2020/07/29 03:06:20;;;;;;;6.2;3;;;;;;;;;;;;;
2020/07/29 03:08:45;;;;;;;5.5;3.2;;;;;;;;;;;;;
2020/07/29 03:11:11;;;;;;;4.1;2.9;;;;;;;;;;;;;
2020/07/29 03:13:36;;;;;;;6.2;3.2;;;;;;;;;;;;;
2020/07/29 03:16:03;;;;;;;4.9;3.2;;;;;;;;;;;;;
2020/07/29 03:18:28;;;;;;;6.4;2.7;;;;;;;;;;;;;
2020/07/29 03:20:53;;;;;;;5.7;3;;;;;;;;;;;;;
2020/07/29 03:23:19;;;;;;;6.9;2.9;;;;;;;;;;;;;
2020/07/29 03:25:45;;;;;;;6.1;2.8;;;;;;;;;;;;;
2020/07/29 03:28:10;;;;;;;6.1;3;;;;;;;;;;;;;
2020/07/29 03:30:37;;;;;;;6.4;2.9;;;;;;;;;;;;;
2020/07/29 03:33:02;;;;;;;4.9;3;;;;;;;;;;;;;
2020/07/29 03:35:29;;;;;;;4.6;2.9;;;;;;;;;;;;;
2020/07/29 03:37:54;;;;;;;4.8;2.8;;;;;;;;;;;;;
2020/07/29 03:40:19;;;;;;;7.9;3.7;;;;;;;;;;;;;
2020/07/29 03:42:45;;;;;;;5.6;3.1;;;;;;;;;;;;;
2020/07/29 03:45:11;;;;;;;5.2;3.6;;;;;;;;;;;;;
2020/07/29 03:47:36;;;;;;;5.8;3.2;;;;;;;;;;;;;
2020/07/29 03:50:02;;;;;;;4.5;3.6;;;;;;;;;;;;;
2020/07/29 03:52:27;;;;;;;6.5;3.2;;;;;;;;;;;;;
2020/07/29 03:54:53;;;;;;;5.6;3.3;;;;;;;;;;;;;
2020/07/29 03:57:18;;;;;;;4.4;2.9;;;;;;;;;;;;;
2020/07/29 03:59:44;;;;;;;6.4;3.3;;;;;;;;;;;;;
2020/07/29 04:02:38;;;;;;;4.5;3.3;;;;;;;19.5;83.03711;940.8056;;;;
2020/07/29 04:05:17;;;;;;;7.4;3.5;;;;;;;19.52;82.9834;940.8496;;;;
2020/07/29 04:07:42;;;;;;;8.1;3.4;;;;;;;19.5;83.08398;940.8605;;;;
2020/07/29 04:10:16;;;;;;;6.5;3.3;;;;;;;19.56;83.68945;940.9258;;;;
2020/07/29 04:12:44;;;;;;;5;3.3;;;;;;;19.56;83.48047;940.9694;;;;
2020/07/29 04:15:09;;;;;;;7.8;3.6;;;;;;;19.62;83.66504;941.0087;;;;
2020/07/29 04:17:35;;;;;;;5.9;3.3;;;;;;;19.64;83.35547;941.014;;;;
2020/07/29 04:20:00;;;;;;;4.7;3;;;;;;;19.54;83.41797;940.9642;;;;
2020/07/29 04:22:27;;;;;;;4.8;2.9;;;;;;;19.53;83.18164;941.0385;;;;
2020/07/29 04:24:52;;;;;;;5.4;3;;;;;;;19.57;82.22266;941.1016;;;;
2020/07/29 04:27:17;;;;;;;8.7;3;;;;;;;19.36;81.26367;941.1022;;;;
2020/07/29 04:29:43;;;;;;;4.6;2.6;;;;;;;19.29;80.17871;941.0317;;;;
2020/07/29 04:32:08;;;;;;;7;3.5;;;;;;;19.42;82.14746;941.063;;;;
2020/07/29 04:34:36;;;;;;;5.4;3.1;;;;;;;19.43;82.26563;941.1617;;;;
2020/07/29 04:37:01;;;;;;;6.8;3.3;;;;;;;19.47;83.06641;941.1552;;;;
2020/07/29 04:39:27;;;;;;;5.5;3.2;;;;;;;19.51;84.0293;941.0542;;;;
2020/07/29 04:41:52;;;;;;;5.7;3.2;;;;;;;19.49;83.60645;941.0499;;;;
2020/07/29 04:44:18;;;;;;;6;3.2;;;;;;;19.29;83.19629;941.0397;;;;
2020/07/29 04:46:43;;;;;;;7.1;3.3;;;;;;;19.25;83.35059;941.0317;;;;
2020/07/29 04:49:11;;;;;;;6.2;3.2;;;;;;;19.43;84.42188;941.0608;;;;
2020/07/29 04:51:36;;;;;;;6.1;3.2;;;;;;;19.26;82.67871;941.0911;;;;
2020/07/29 04:54:02;;;;;;;6.9;3.2;;;;;;;19.3;83.95313;941.0929;;;;
2020/07/29 04:56:27;;;;;;;5.4;3.5;;;;;;;19.44;84.9248;941.1001;;;;
2020/07/29 04:58:52;;;;;;;6.7;3.6;;;;;;;19.49;84.28223;941.1144;;;;
2020/07/29 05:01:19;;;;;;;7.8;3.6;;;;;;;19.63;83.50391;941.1355;;;;
2020/07/29 05:03:50;;;;;;;6.6;3.5;;;;;;;19.67;83.20703;941.1404;;;;
2020/07/29 05:06:23;;;;;;;5.3;3.2;;;;;;;19.79;82.7998;941.0894;;;;
2020/07/29 05:08:50;;;;;;;4.7;3.3;;;;;;;19.83;84.40625;941.1639;;;;
2020/07/29 05:11:15;;;;;;;4;3.4;;;;;;;19.92;84.05957;941.2121;;;;
2020/07/29 05:13:41;;;;;;;5.9;3.4;;;;;;;20.04;83.96777;941.1498;;;;
2020/07/29 05:16:06;;;;;;;5.5;3.4;;;;;;;20.11;83.28125;941.1038;;;;
2020/07/29 05:18:31;;;;;;;5.3;3.2;;;;;;;20.13;83.01563;941.1099;;;;
2020/07/29 05:20:57;;;;;;;5.6;3.2;;;;;;;20.17;82.56543;941.05;;;;
2020/07/29 05:23:22;;;;;;;5.3;3.3;;;;;;;20.23;83.06934;941.1401;;;;
2020/07/29 05:25:48;;;;;;;5.4;3.5;;;;;;;20.29;82.62402;941.1501;;;;
2020/07/29 05:28:13;;;;;;;8.4;3.3;;;;;;;20.33;82.43457;941.1339;;;;
2020/07/29 05:30:44;;;;;;;5.6;3.3;;;;;;;20.38;82.50293;941.0719;;;;
2020/07/29 05:33:15;;;;;;;5.6;3.2;;;;;;;20.42;83;941.0236;;;;
2020/07/29 05:35:49;;;;;;;5.5;3.2;;;;;;;20.46;83.31055;941.116;;;;
2020/07/29 05:38:18;;;;;;;6.1;3;;;;;;;20.42;83.32715;941.1621;;;;
2020/07/29 05:40:43;;;;;;;6.2;3.5;;;;;;;20.41;83.36035;941.1565;;;;
2020/07/29 05:43:09;;;;;;;4.5;3.1;;;;;;;20.43;82.81641;941.1781;;;;
2020/07/29 05:45:36;;;;;;;5.9;3.4;;;;;;;20.48;81.86719;941.2392;;;;
2020/07/29 05:48:04;;;;;;;9.3;3.4;;;;;;;20.47;82.02734;941.3325;;;;
2020/07/29 05:50:29;;;;;;;6.6;3.1;;;;;;;20.45;82.28223;941.4073;;;;
2020/07/29 05:52:55;;;;;;;9.7;3.5;;;;;;;20.43;81.40137;941.382;;;;
2020/07/29 05:55:22;;;;;;;10;3.5;;;;;;;20.44;80.65625;941.3826;;;;
2020/07/29 05:57:47;;;;;;;7.8;3.5;;;;;;;20.23;79.94141;941.3488;;;;
2020/07/29 06:00:14;;;;;;;8.5;3.3;;;;;;;20.22;80.00977;941.353;;;;
2020/07/29 06:02:39;;;;;;;14.2;3.9;;;;;;;20.15;80.07617;941.3933;;;;
2020/07/29 06:05:08;;;;;;;10.5;3.5;;;;;;;20.2;80.7998;941.4389;;;;
2020/07/29 06:07:33;;;;;;;9.8;3.4;;;;;;;20.27;82.03711;941.3804;;;;
2020/07/29 06:09:59;;;;;;;15.6;3.6;;;;;;;20.36;81.28516;941.4056;;;;
2020/07/29 06:12:24;;;;;;;16.5;4.1;;;;;;;20.16;80.89648;941.5045;;;;
2020/07/29 06:14:51;;;;;;;14.4;4.1;;;;;;;20.36;81.14453;941.5674;;;;
2020/07/29 06:17:16;;;;;;;11.8;3.5;;;;;;;20.32;80.3291;941.5401;;;;
2020/07/29 06:19:41;;;;;;;11.8;3.6;;;;;;;20.46;81.52539;941.5641;;;;
2020/07/29 06:22:08;;;;;;;5.9;3;;;;;;;20.26;79.35254;941.4889;;;;
2020/07/29 06:24:33;;;;;;;12.7;4.2;;;;;;;20.19;81.96387;941.5281;;;;
2020/07/29 06:27:00;;;;;;;9;3.5;;;;;;;20.13;82.16406;941.5101;;;;
2020/07/29 06:29:25;;;;;;;9.2;3.7;;;;;;;20.15;82.26074;941.55;;;;
2020/07/29 06:31:55;;;;;;;12.8;3.8;;;;;;;20.39;81.88379;941.5369;;;;
2020/07/29 06:34:26;;;;;;;14.4;3.8;;;;;;;20.38;81.87207;941.6066;;;;
2020/07/29 06:36:52;;;;;;;14.7;3.4;;;;;;;20.47;79.50488;941.5988;;;;
2020/07/29 06:39:19;;;;;;;8.6;2.9;;;;;;;19.94;79.40918;941.6086;;;;
2020/07/29 06:41:48;;;;;;;9.3;3.2;;;;;;;19.74;80.34082;941.589;;;;
2020/07/29 06:44:20;;;;;;;4.3;2.5;;;;;;;19.76;79.16602;941.5708;;;;
2020/07/29 06:46:56;;;;;;;13;3.8;;;;;;;20.23;82.84766;941.5226;;;;
2020/07/29 06:49:28;;;;;;;8.6;3.2;;;;;;;20.57;80.7627;941.5655;;;;
2020/07/29 06:51:59;;;;;;;7.1;2.8;;;;;;;20.44;75.22461;941.5963;;;;
2020/07/29 06:54:27;;;;;;;8.2;3;;;;;;;20.21;76.54102;941.5923;;;;
2020/07/29 06:56:52;;;;;;;6.2;2.9;;;;;;;20.14;76.82031;941.6102;;;;
2020/07/29 06:59:20;;;;;;;6.3;2.7;;;;;;;20.14;78.4873;941.6272;;;;
2020/07/29 07:01:45;;;;;;;16.5;3.7;;;;;;;20.42;77.55566;941.623;;;;
2020/07/29 07:04:10;;;;;;;10.5;3.2;;;;;;;20.51;75.59961;941.6746;;;;
2020/07/29 07:06:39;;;;;;;11.1;3.7;;;;;;;20.51;76.86133;941.584;;;;
2020/07/29 07:09:08;;;;;;;8.1;3.1;;;;;;;21.13;75.41211;941.5962;;;;
2020/07/29 07:11:33;;;;;;;11.7;3.4;;;;;;;21.66;74.43652;941.5726;;;;
2020/07/29 07:13:59;;;;;;;12.4;3.5;;;;;;;21.92;70.91895;941.6158;;;;
2020/07/29 07:16:24;;;;;;;8.1;2.7;;;;;;;22.49;69.89355;941.5845;;;;
2020/07/29 07:18:52;;;;;;;4.5;2.1;;;;;;;23.8;66.81836;941.7162;;;;
2020/07/29 07:21:17;;;;;;;5.5;2.2;;;;;;;26.28;58.125;941.6933;;;;
2020/07/29 07:23:44;;;;;;;4.7;2;;;;;;;25.78;55.38867;941.6489;;;;
2020/07/29 07:26:09;;;;;;;7.7;2.4;;;;;;;25.46;56.70801;941.75;;;;
2020/07/29 07:28:34;;;;;;;7.3;2.2;;;;;;;25.01;60.25098;941.7101;;;;
2020/07/29 07:30:59;;;;;;;6;2.5;;;;;;;24.83;59.33887;941.7123;;;;
2020/07/29 07:33:28;;;;;;;4.5;2;;;;;;;26.61;55.74023;941.6213;;;;
2020/07/29 07:35:54;;;;;;;6.2;2.2;;;;;;;27.77;51.38477;941.6085;;;;
2020/07/29 07:38:19;;;;;;;7;2.2;;;;;;;26.96;51.68262;941.6514;;;;
2020/07/29 07:40:44;;;;;;;8.8;2.1;;;;;;;28.81;49.39746;941.6442;;;;
2020/07/29 07:43:10;;;;;;;3.7;1.9;;;;;;;30.37;43.13184;941.5561;;;;
2020/07/29 07:45:37;;;;;;;4.1;2;;;;;;;28.78;46.00293;941.5833;;;;
2020/07/29 07:48:07;;;;;;;7.1;2.1;;;;;;;30.75;44.39941;941.5331;;;;
2020/07/29 07:50:33;;;;;;;5;2.5;;;;;;;32.82;40.80762;941.5876;;;;
2020/07/29 07:52:58;;;;;;;4;2.3;;;;;;;33.27;40.21191;941.5729;;;;
2020/07/29 07:55:23;;;;;;;3.4;2.1;;;;;;;33.71;38.8916;941.5988;;;;
2020/07/29 07:57:48;;;;;;;5.5;2.2;;;;;;;34.41;36.0957;941.5717;;;;
2020/07/29 08:00:14;;;;;;;6.6;2.6;;;;;;;34.84;34.81445;941.6292;;;;
2020/07/29 08:02:40;;;;;;;5.6;2.3;;;;;;;35.58;32.78223;941.5823;;;;
2020/07/29 08:05:05;;;;;;;3.1;1.9;;;;;;;34.88;33.05762;941.5209;;;;
2020/07/29 08:07:31;;;;;;;2.8;2;;;;;;;35.03;34.79297;941.5304;;;;
2020/07/29 08:09:56;;;;;;;5;2.3;;;;;;;34.53;35.97266;941.4504;;;;
2020/07/29 08:12:23;;;;;;;4.4;2.1;;;;;;;34.28;36.54199;941.4313;;;;
2020/07/29 08:14:49;;;;;;;3.9;2.2;;;;;;;34.59;33.85645;941.4671;;;;
2020/07/29 08:17:14;;;;;;;4.2;1.9;;;;;;;33.73;34.22559;941.454;;;;
2020/07/29 08:19:39;;;;;;;4.3;2.1;;;;;;;32.64;40.14355;941.4297;;;;
2020/07/29 08:22:04;;;;;;;4.6;1.9;;;;;;;34.4;37.14258;941.4236;;;;
2020/07/29 08:24:30;;;;;;;4.8;2;;;;;;;34.57;34.84375;941.3728;;;;
2020/07/29 08:26:55;;;;;;;6.7;2.2;;;;;;;33.9;36.37988;941.368;;;;
2020/07/29 08:29:23;;;;;;;5.9;2.2;;;;;;;35.04;34.52832;941.3236;;;;
2020/07/29 08:31:48;;;;;;;5;2;;;;;;;34.94;38.6709;941.3215;;;;
2020/07/29 08:34:16;;;;;;;4.7;2;;;;;;;36.11;34.47656;941.3158;;;;
2020/07/29 08:36:44;;;;;;;3.5;1.8;;;;;;;36.07;32.26172;941.298;;;;
2020/07/29 08:39:09;;;;;;;3.7;2.2;;;;;;;36.15;31.63672;941.3167;;;;
2020/07/29 08:41:35;;;;;;;4.5;2.1;;;;;;;36.67;32.1582;941.3729;;;;
2020/07/29 08:44:00;;;;;;;12.2;2.6;;;;;;;34.87;35.10645;941.3228;;;;
2020/07/29 08:46:26;;;;;;;6.5;2.2;;;;;;;34.96;35.28223;941.3441;;;;
2020/07/29 08:48:51;;;;;;;6.5;2.3;;;;;;;35.5;36.27832;941.3031;;;;
2020/07/29 08:51:16;;;;;;;4.4;2;;;;;;;35.94;33.23047;941.2864;;;;
2020/07/29 08:53:41;;;;;;;3.6;1.8;;;;;;;36.37;31.88184;941.2392;;;;
2020/07/29 08:56:06;;;;;;;2.9;1.7;;;;;;;35.57;34.7373;941.2372;;;;
2020/07/29 08:58:32;;;;;;;5;1.8;;;;;;;35.56;33.93945;941.2701;;;;
2020/07/29 09:00:57;;;;;;;3.3;1.8;;;;;;;35.96;32.9541;941.2813;;;;
2020/07/29 09:03:25;;;;;;;4;2;;;;;;;36.73;33.79688;941.2673;;;;
2020/07/29 09:05:50;;;;;;;5.2;1.9;;;;;;;36.02;34.0957;941.2224;;;;
2020/07/29 09:08:18;;;;;;;3.7;1.6;;;;;;;35.97;32.35059;941.2219;;;;
2020/07/29 09:10:43;;;;;;;3.1;1.8;;;;;;;36.36;33.43066;941.2523;;;;
2020/07/29 09:13:09;;;;;;;4.4;2;;;;;;;35.67;34.15332;941.2319;;;;
2020/07/29 09:15:35;;;;;;;4.6;2.2;;;;;;;34.97;35.71777;941.2179;;;;
2020/07/29 09:18:02;;;;;;;4.9;2;;;;;;;35.25;34.99023;941.2386;;;;
2020/07/29 09:20:27;;;;;;;4.9;2;;;;;;;34.12;35.97656;941.233;;;;
2020/07/29 09:22:53;;;;;;;3.4;2;;;;;;;34.02;36.78711;941.2258;;;;
2020/07/29 09:25:18;;;;;;;5.2;1.9;;;;;;;34.34;36.54785;941.2121;;;;
2020/07/29 09:27:43;;;;;;;3.5;2.1;;;;;;;33.52;36.9502;941.215;;;;
2020/07/29 09:30:13;;;;;;;5.8;2;;;;;;;33.53;39.98242;941.1517;;;;
2020/07/29 09:32:38;;;;;;;5;1.8;;;;;;;33.3;37.52246;941.1942;;;;
2020/07/29 09:35:03;;;;;;;5.7;2;;;;;;;33.06;40.37305;941.1355;;;;
2020/07/29 09:37:28;;;;;;;4.2;1.6;;;;;;;33.21;39.7373;941.1;;;;
2020/07/29 09:39:55;;;;;;;4;1.8;;;;;;;33.15;39.48047;941.1138;;;;
2020/07/29 09:42:20;;;;;;;3.6;1.8;;;;;;;32.58;40.18652;941.0956;;;;
2020/07/29 09:44:45;;;;;;;5.4;1.9;;;;;;;32.69;41.90137;941.074;;;;
2020/07/29 09:47:11;;;;;;;5.9;1.8;;;;;;;32.83;41.10938;941.1005;;;;
2020/07/29 09:49:39;;;;;;;3;1.7;;;;;;;32.8;42.22266;941.0684;;;;
2020/07/29 09:52:03;;;;;;;5.6;1.8;;;;;;;32.45;41.75977;941.0883;;;;
2020/07/29 09:54:32;;;;;;;3.1;1.7;;;;;;;32.07;44.27637;941.0667;;;;
2020/07/29 09:56:57;;;;;;;5.7;2.1;;;;;;;32.15;42.2832;941.0181;;;;
2020/07/29 09:59:22;;;;;;;5.1;1.9;;;;;;;32.02;43.45605;941.0446;;;;
2020/07/29 10:01:51;;;;;;;3.8;1.7;;;;;;;31.99;43.33398;941.0038;;;;
2020/07/29 10:04:16;;;;;;;4.1;1.6;;;;;;;31.93;42.30957;941.0061;;;;
2020/07/29 10:06:41;;;;;;;5.9;1.7;;;;;;;31.78;43.45801;941.0111;;;;
2020/07/29 10:09:06;;;;;;;5.7;2;;;;;;;31.52;43.43262;940.9637;;;;
2020/07/29 10:11:32;;;;;;;3.2;1.7;;;;;;;30.96;44.91016;940.9467;;;;
2020/07/29 10:13:59;;;;;;;5.4;1.9;;;;;;;30.48;44.94629;940.9782;;;;
2020/07/29 10:16:24;;;;;;;4.1;1.8;;;;;;;29.92;46.45313;940.949;;;;
2020/07/29 10:18:55;;;;;;;4.2;1.9;;;;;;;29.34;49.02539;940.9456;;;;
2020/07/29 10:21:20;;;;;;;7;2.3;;;;;;;29.17;49.31836;940.904;;;;
2020/07/29 10:23:46;;;;;;;5.7;2.2;;;;;;;29.42;49.64258;940.9686;;;;
2020/07/29 10:26:13;;;;;;;8;2.4;;;;;;;29.53;47.71191;940.9476;;;;
2020/07/29 10:28:38;;;;;;;3.4;1.8;;;;;;;29.42;48.37891;940.9373;;;;
2020/07/29 10:31:03;;;;;;;5.4;2;;;;;;;29.57;48.0498;940.8884;;;;
2020/07/29 10:33:31;;;;;;;4.3;1.9;;;;;;;29.53;48.30859;940.8541;;;;
2020/07/29 10:35:56;;;;;;;3;1.8;;;;;;;29.82;47.22949;940.9051;;;;
2020/07/29 10:38:22;;;;;;;4.2;1.9;;;;;;;29.61;47.51855;940.8591;;;;
2020/07/29 10:40:50;;;;;;;4.1;1.9;;;;;;;29.55;48.45313;940.849;;;;
2020/07/29 10:43:19;;;;;;;3.8;1.9;;;;;;;29.2;48.66602;940.9247;;;;
2020/07/29 10:45:52;;;;;;;4.4;2.3;;;;;;;28.95;50.66211;940.8945;;;;
2020/07/29 10:48:17;;;;;;;4;2.2;;;;;;;28.68;51.15625;940.9185;;;;
2020/07/29 10:50:42;;;;;;;6.1;2.4;;;;;;;28.6;51.74023;940.8933;;;;
2020/07/29 10:53:07;;;;;;;5.5;2.3;;;;;;;28.17;52.08398;940.9023;;;;
2020/07/29 10:55:32;;;;;;;3.2;2.1;;;;;;;28.29;51.8125;940.8851;;;;
2020/07/29 10:57:58;;;;;;;4.6;2.2;;;;;;;28.16;52.45117;940.8007;;;;
2020/07/29 11:00:27;;;;;;;4.6;2.2;;;;;;;28.09;52.51367;940.8134;;;;
2020/07/29 11:02:53;;;;;;;5;2.5;;;;;;;27.77;54.7334;940.8194;;;;
2020/07/29 11:05:23;;;;;;;6.8;2.3;;;;;;;27.8;54.32227;940.8014;;;;
2020/07/29 11:07:48;;;;;;;5.3;2.3;;;;;;;28.03;53.05371;940.8608;;;;
2020/07/29 11:10:20;;;;;;;4.3;2.4;;;;;;;28.17;52.54688;940.9227;;;;
2020/07/29 11:12:45;;;;;;;6.3;2.2;;;;;;;28.26;52.67676;940.8839;;;;
2020/07/29 11:15:10;;;;;;;4.3;2.3;;;;;;;28.6;52.97852;940.858;;;;
2020/07/29 11:17:35;;;;;;;6.4;2.4;;;;;;;28.69;52.87012;940.8041;;;;
2020/07/29 11:20:00;;;;;;;5.7;2.4;;;;;;;28.36;52.13086;940.8474;;;;
2020/07/29 11:22:25;;;;;;;7;2.2;;;;;;;28.09;53.46484;940.8791;;;;
2020/07/29 11:24:50;;;;;;;5.2;2.2;;;;;;;28.17;53.43848;940.8212;;;;
2020/07/29 11:27:15;;;;;;;4.5;2.1;;;;;;;28.44;52.43652;940.8596;;;;
2020/07/29 11:29:40;;;;;;;4.7;2.3;;;;;;;28.44;52.12695;940.8245;;;;
2020/07/29 11:32:05;;;;;;;4.4;2.7;;;;;;;28.13;52.58984;940.8531;;;;
2020/07/29 11:34:31;;;;;;;5.5;2.1;;;;;;;28.1;52.46777;940.8424;;;;
2020/07/29 11:36:56;;;;;;;6.4;2.2;;;;;;;27.7;53.2168;940.8363;;;;
2020/07/29 11:39:21;;;;;;;4.7;2.2;;;;;;;27.74;53.93457;940.8063;;;;
2020/07/29 11:41:46;;;;;;;5.3;2.4;;;;;;;27.83;53.40918;940.7712;;;;
2020/07/29 11:44:11;;;;;;;6.8;2.6;;;;;;;27.48;54.06934;940.7955;;;;
2020/07/29 11:46:36;;;;;;;3.4;2.3;;;;;;;27.27;54.03125;940.7661;;;;
2020/07/29 11:49:01;;;;;;;7.6;2.4;;;;;;;26.81;54.8877;940.7751;;;;
2020/07/29 11:51:32;;;;;;;8.5;2.6;;;;;;;26.92;55.86133;940.7791;;;;
2020/07/29 11:53:57;;;;;;;8.7;2.9;;;;;;;26.82;56.76074;940.7502;;;;
2020/07/29 11:56:22;;;;;;;5.2;2.7;;;;;;;26.8;54.73242;940.712;;;;
2020/07/29 11:58:48;;;;;;;4;2.6;;;;;;;26.93;54.44141;940.7508;;;;
2020/07/29 12:01:17;;;;;;;6.3;2.2;;;;;;;26.89;54.57813;940.7659;;;;
2020/07/29 12:03:42;;;;;;;4.4;2.3;;;;;;;26.94;54.12207;940.7208;;;;
2020/07/29 12:06:07;;;;;;;5.7;2.4;;;;;;;26.88;54.93262;940.7199;;;;
2020/07/29 12:08:32;;;;;;;4.5;2.1;;;;;;;27.04;55.56836;940.7408;;;;
2020/07/29 12:10:58;;;;;;;5.5;2.2;;;;;;;27.13;55.8291;940.7721;;;;
2020/07/29 12:13:24;;;;;;;4.8;2.8;;;;;;;26.94;55.55664;940.7951;;;;
2020/07/29 12:15:50;;;;;;;6.8;2.7;;;;;;;27.03;56.24219;940.8181;;;;
2020/07/29 12:18:15;;;;;;;4.9;2.5;;;;;;;27.18;55.25293;940.7911;;;;
2020/07/29 12:20:40;;;;;;;4.5;2.3;;;;;;;27.15;54.11133;940.7386;;;;
2020/07/29 12:23:05;;;;;;;6.2;2.4;;;;;;;27.05;54.65625;940.788;;;;
2020/07/29 12:25:30;;;;;;;6.5;2.5;;;;;;;27.25;55.06152;940.7793;;;;
2020/07/29 12:27:55;;;;;;;7.5;2.6;;;;;;;27.38;54.1875;940.8381;;;;
2020/07/29 12:30:32;;;;;;;5.2;2.5;;;;;;;27.54;53.60156;940.8594;;;;
2020/07/29 12:33:02;;;;;;;5.3;2.2;;;;;;;27.32;53.63379;940.8472;;;;
2020/07/29 12:35:28;;;;;;;4.7;2.3;;;;;;;27.3;55.30469;940.8784;;;;
2020/07/29 12:37:53;;;;;;;4.7;2.2;;;;;;;27.49;54.42676;940.8097;;;;
2020/07/29 12:40:22;;;;;;;4.7;2.4;;;;;;;27.92;53.83594;940.8675;;;;
2020/07/29 12:42:47;;;;;;;7;2.6;;;;;;;27.96;53.48535;940.866;;;;
2020/07/29 12:45:20;;;;;;;4.2;2.1;;;;;;;28;53.58594;940.8933;;;;
2020/07/29 12:47:45;;;;;;;4.6;2.4;;;;;;;28.08;54.30762;940.935;;;;
2020/07/29 12:50:16;;;;;;;5.6;2.3;;;;;;;28.1;53.88184;940.9128;;;;
2020/07/29 12:52:41;;;;;;;4.9;2.4;;;;;;;28.03;54.46777;940.9149;;;;
2020/07/29 12:55:06;;;;;;;5.5;2.3;;;;;;;27.8;52.70703;940.8817;;;;
2020/07/29 12:57:31;;;;;;;7.2;2.7;;;;;;;27.84;54.3252;940.9266;;;;
2020/07/29 12:59:56;;;;;;;3.3;2.1;;;;;;;27.93;52.11621;940.8578;;;;
2020/07/29 13:02:22;;;;;;;4.2;2.4;;;;;;;27.91;52.54004;940.8772;;;;
2020/07/29 13:04:47;;;;;;;3.8;2.1;;;;;;;27.95;52.20117;940.9196;;;;
2020/07/29 13:07:12;;;;;;;6.4;2.5;;;;;;;27.96;52.25;940.8987;;;;
2020/07/29 13:09:37;;;;;;;9.9;2.6;;;;;;;27.62;52.81641;940.8921;;;;
2020/07/29 13:12:02;;;;;;;5.5;2.5;;;;;;;27.83;54.53809;940.8744;;;;
2020/07/29 13:14:33;;;;;;;5.3;2.2;;;;;;;27.68;53.61719;940.8367;;;;
2020/07/29 13:16:59;;;;;;;4.5;2.3;;;;;;;27.65;54.32715;940.8747;;;;
2020/07/29 13:19:24;;;;;;;3.8;2.4;;;;;;;27.69;53.93945;940.827;;;;
2020/07/29 13:21:49;;;;;;;5.6;2.3;;;;;;;27.7;53.16895;940.9326;;;;
2020/07/29 13:24:15;;;;;;;10.8;2.6;;;;;;;27.76;54.2207;940.8504;;;;
2020/07/29 13:26:40;;;;;;;4.7;2.5;;;;;;;27.84;54.80078;940.8552;;;;
2020/07/29 13:29:05;;;;;;;5.7;2.4;;;;;;;28.02;54.59668;940.8538;;;;
2020/07/29 13:31:34;;;;;;;6.4;2.9;;;;;;;27.97;52.73828;940.9408;;;;
2020/07/29 13:33:59;;;;;;;5.1;2.4;;;;;;;27.94;52.30762;940.854;;;;
2020/07/29 13:36:26;;;;;;;7;2.2;;;;;;;28.08;52.7627;940.8183;;;;
2020/07/29 13:38:51;;;;;;;7;2.3;;;;;;;28.15;53.16309;940.8092;;;;
2020/07/29 13:41:16;;;;;;;9.7;2.7;;;;;;;28.02;52.19629;940.7892;;;;
2020/07/29 13:43:41;;;;;;;6.7;2.5;;;;;;;27.84;54.19434;940.7507;;;;
2020/07/29 13:46:09;;;;;;;5.6;2.5;;;;;;;28.13;54.07617;940.7556;;;;
2020/07/29 13:48:34;;;;;;;5.2;2.5;;;;;;;28.1;54.20313;940.7914;;;;
2020/07/29 13:50:59;;;;;;;4.7;2.4;;;;;;;28.03;52.67383;940.8116;;;;
2020/07/29 13:53:24;;;;;;;7.5;2.6;;;;;;;27.81;53.37207;940.793;;;;
2020/07/29 13:55:49;;;;;;;6.8;2.6;;;;;;;27.67;53.22559;940.8052;;;;
2020/07/29 13:58:15;;;;;;;4.4;2.2;;;;;;;27.35;53.83887;940.8351;;;;
2020/07/29 14:00:43;;;;;;;6.6;2.9;;;;;;;27.01;54.97266;940.8123;;;;
2020/07/29 14:03:08;;;;;;;6.1;2.5;;;;;;;26.89;58.46582;940.7852;;;;
2020/07/29 14:05:33;;;;;;;4.4;2.6;;;;;;;26.86;57.78516;940.7111;;;;
2020/07/29 14:07:58;;;;;;;10;2.6;;;;;;;26.81;57.43457;940.7049;;;;
2020/07/29 14:10:23;;;;;;;4.4;2.5;;;;;;;26.76;57.82031;940.6516;;;;
2020/07/29 14:12:49;;;;;;;5.2;2.5;;;;;;;26.68;56.85059;940.7335;;;;
2020/07/29 14:15:20;;;;;;;6.3;2.4;;;;;;;26.61;56.54492;940.7341;;;;
2020/07/29 14:17:45;;;;;;;6.4;2.5;;;;;;;26.44;56.67871;940.6909;;;;
2020/07/29 14:20:12;;;;;;;5.3;2.7;;;;;;;26.31;57.41895;940.7374;;;;
2020/07/29 14:22:37;;;;;;;5;2.3;;;;;;;26.32;56.90039;940.7269;;;;
2020/07/29 14:25:02;;;;;;;5.9;2.5;;;;;;;26.35;57.6377;940.74;;;;
2020/07/29 14:27:29;;;;;;;4.3;2.4;;;;;;;26.39;57.81934;940.7452;;;;
2020/07/29 14:29:53;;;;;;;7.2;2.7;;;;;;;26.5;57.13672;940.7375;;;;
2020/07/29 14:32:18;;;;;;;5.8;2.4;;;;;;;26.32;57.18359;940.7566;;;;
2020/07/29 14:34:43;;;;;;;7.4;2.8;;;;;;;26.46;57.69922;940.6817;;;;
2020/07/29 14:37:08;;;;;;;6.4;2.5;;;;;;;26.54;57.25977;940.6248;;;;
2020/07/29 14:39:33;;;;;;;5.7;2.4;;;;;;;26.64;58.2666;940.5661;;;;
2020/07/29 14:41:59;;;;;;;4.4;2.4;;;;;;;26.58;56.16309;940.5809;;;;
2020/07/29 14:44:23;;;;;;;7.9;2.5;;;;;;;26.48;57.44043;940.6016;;;;
2020/07/29 14:46:49;;;;;;;5.7;2.3;;;;;;;26.53;56.79492;940.5795;;;;
2020/07/29 14:49:14;;;;;;;6.4;2.9;;;;;;;26.28;57.94629;940.5903;;;;
2020/07/29 14:51:39;;;;;;;5.3;2.5;;;;;;;26.43;57.95508;940.5916;;;;
2020/07/29 14:54:04;;;;;;;6.1;2.5;;;;;;;26.49;57.86914;940.6384;;;;
2020/07/29 14:56:29;;;;;;;5.3;2.5;;;;;;;26.51;57.49121;940.6181;;;;
2020/07/29 14:58:54;;;;;;;3.8;2.4;;;;;;;26.68;57.73828;940.6036;;;;
2020/07/29 15:01:22;;;;;;;5.2;2.6;;;;;;;26.8;57.88379;940.6378;;;;
2020/07/29 15:03:47;;;;;;;4.4;2.6;;;;;;;26.83;57.39063;940.6035;;;;
2020/07/29 15:06:12;;;;;;;5.1;2.6;;;;;;;26.75;56.72949;940.555;;;;
2020/07/29 15:08:37;;;;;;;4.5;2.6;;;;;;;26.35;55.93359;940.5995;;;;
2020/07/29 15:11:03;;;;;;;6.3;2.6;;;;;;;26.42;56.55762;940.5533;;;;
2020/07/29 15:13:28;;;;;;;7.5;2.8;;;;;;;26.48;56.31641;940.515;;;;
2020/07/29 15:15:53;;;;;;;6.6;2.7;;;;;;;26.39;56.57715;940.5754;;;;
2020/07/29 15:18:18;;;;;;;5.6;2.8;;;;;;;26.44;56.90234;940.535;;;;
2020/07/29 15:20:44;;;;;;;5.4;2.7;;;;;;;26.52;56.8418;940.5996;;;;
2020/07/29 15:23:09;;;;;;;7.4;3.1;;;;;;;26.52;56.88867;940.5653;;;;
2020/07/29 15:25:34;;;;;;;6.2;3.1;;;;;;;26.6;57.13574;940.5305;;;;
2020/07/29 15:27:59;;;;;;;6.2;2.7;;;;;;;26.63;56.79688;940.4938;;;;
2020/07/29 15:30:25;;;;;;;6.2;2.9;;;;;;;26.63;56.12207;940.3942;;;;
2020/07/29 15:32:50;;;;;;;5.4;2.6;;;;;;;26.5;58.17676;940.4741;;;;